createdAt,value
2023-03-30T00:00:18.719Z,12.20
2023-03-30T00:02:49.765Z,12.11
2023-03-30T00:05:20.453Z,12.24
2023-03-30T00:07:48.948Z,12.25
2023-03-30T00:10:22.492Z,12.15
2023-03-30T00:12:52.994Z,12.12
2023-03-30T00:15:26.858Z,12.19
2023-03-30T00:17:55.809Z,12.30
2023-03-30T00:20:24.352Z,12.33
2023-03-30T00:22:52.493Z,12.31
2023-03-30T00:25:20.644Z,12.31
2023-03-30T00:27:48.593Z,12.25
2023-03-30T00:30:20.077Z,12.26
2023-03-30T00:32:48.464Z,12.29
2023-03-30T00:35:16.514Z,12.31
2023-03-30T00:37:48.142Z,12.33
2023-03-30T00:40:18.182Z,12.38
2023-03-30T00:42:47.441Z,12.36
2023-03-30T00:45:25.753Z,12.36
2023-03-30T00:47:58.521Z,12.38
2023-03-30T00:50:35.134Z,12.29
2023-03-30T00:53:10.340Z,12.33
2023-03-30T00:55:41.334Z,12.32
2023-03-30T00:58:11.043Z,12.29
2023-03-30T01:00:45.146Z,12.33
2023-03-30T01:03:20.224Z,12.29
2023-03-30T01:05:49.046Z,12.23
2023-03-30T01:08:18.394Z,12.17
2023-03-30T01:10:46.470Z,12.18
2023-03-30T01:13:16.286Z,12.18
2023-03-30T01:15:58.867Z,12.20
2023-03-30T01:18:35.813Z,12.20
2023-03-30T01:21:36.188Z,12.30
2023-03-30T01:24:34.896Z,12.17
2023-03-30T01:27:13.052Z,12.21
2023-03-30T01:29:55.937Z,12.24
2023-03-30T01:32:46.336Z,12.17
2023-03-30T01:35:35.300Z,12.14
2023-03-30T01:38:41.765Z,12.17
2023-03-30T01:41:20.105Z,12.10
2023-03-30T01:43:57.530Z,12.11
2023-03-30T01:46:31.625Z,12.17
2023-03-30T01:49:09.370Z,12.08
2023-03-30T01:51:42.924Z,12.12
2023-03-30T01:54:15.627Z,12.10
2023-03-30T01:56:51.032Z,12.09
2023-03-30T01:59:25.435Z,12.07
2023-03-30T02:02:00.598Z,12.04
2023-03-30T02:04:32.114Z,12.15
2023-03-30T02:07:04.462Z,12.16
2023-03-30T02:09:35.930Z,12.10
2023-03-30T02:12:07.846Z,12.03
2023-03-30T02:14:38.586Z,12.06
2023-03-30T02:17:11.506Z,12.05
2023-03-30T02:19:39.653Z,12.03
2023-03-30T02:22:08.891Z,12.01
2023-03-30T02:24:38.114Z,12.00
2023-03-30T02:27:08.040Z,12.12
2023-03-30T02:29:38.640Z,12.03
2023-03-30T02:32:07.936Z,12.06
2023-03-30T02:34:53.268Z,12.02
2023-03-30T02:37:45.146Z,12.08
2023-03-30T02:40:32.229Z,12.05
2023-03-30T02:43:16.602Z,12.03
2023-03-30T02:45:53.615Z,11.92
2023-03-30T02:48:34.857Z,11.88
2023-03-30T02:51:22.828Z,11.90
2023-03-30T02:53:58.545Z,11.93
2023-03-30T02:56:37.620Z,12.03
2023-03-30T02:59:13.263Z,12.00
2023-03-30T03:01:45.401Z,11.98
2023-03-30T03:04:16.432Z,12.01
2023-03-30T03:06:45.024Z,12.05
2023-03-30T03:09:15.386Z,12.11
2023-03-30T03:11:43.399Z,12.03
2023-03-30T03:14:13.124Z,12.02
2023-03-30T03:16:41.118Z,12.07
2023-03-30T03:19:09.805Z,12.16
2023-03-30T03:21:38.005Z,12.20
2023-03-30T03:24:06.890Z,12.19
2023-03-30T03:26:35.071Z,12.19
2023-03-30T03:29:03.591Z,12.03
2023-03-30T03:31:33.107Z,11.88
2023-03-30T03:34:01.420Z,11.87
2023-03-30T03:36:30.893Z,11.77
2023-03-30T03:38:58.846Z,11.75
2023-03-30T03:41:27.004Z,11.74
2023-03-30T03:43:54.920Z,11.72
2023-03-30T03:46:23.130Z,11.67
2023-03-30T03:48:52.682Z,11.67
2023-03-30T03:51:23.074Z,11.80
2023-03-30T03:53:51.694Z,11.82
2023-03-30T03:56:19.762Z,11.78
2023-03-30T03:58:47.716Z,11.80
2023-03-30T04:01:15.785Z,11.83
2023-03-30T04:03:43.960Z,11.87
2023-03-30T04:06:13.333Z,11.92
2023-03-30T04:08:43.058Z,11.93
2023-03-30T04:11:13.681Z,11.82
2023-03-30T04:13:43.374Z,11.82
2023-03-30T04:16:11.652Z,11.79
2023-03-30T04:18:41.773Z,11.84
2023-03-30T04:21:13.146Z,11.90
2023-03-30T04:23:45.851Z,11.92
2023-03-30T04:26:15.624Z,11.90
2023-03-30T04:28:43.566Z,11.90
2023-03-30T04:31:13.157Z,12.00
2023-03-30T04:33:51.947Z,11.94
2023-03-30T04:36:21.287Z,12.02
2023-03-30T04:38:58.852Z,12.02
2023-03-30T04:41:33.619Z,11.89
2023-03-30T04:44:03.487Z,11.95
2023-03-30T04:46:31.783Z,11.93
2023-03-30T04:48:59.745Z,11.94
2023-03-30T04:51:28.222Z,11.89
2023-03-30T04:53:57.809Z,11.93
2023-03-30T04:56:26.287Z,11.90
2023-03-30T04:58:54.402Z,11.84
2023-03-30T05:01:22.648Z,11.97
2023-03-30T05:03:51.298Z,12.05
2023-03-30T05:06:19.570Z,12.00
2023-03-30T05:08:47.594Z,11.93
2023-03-30T05:11:17.196Z,11.94
2023-03-30T05:13:45.244Z,11.99
2023-03-30T05:16:13.446Z,12.07
2023-03-30T05:18:41.852Z,11.99
2023-03-30T05:21:09.822Z,11.95
2023-03-30T05:23:39.993Z,12.11
2023-03-30T05:26:09.051Z,12.19
2023-03-30T05:28:38.464Z,12.19
2023-03-30T05:31:07.480Z,12.17
2023-03-30T05:33:36.807Z,12.14
2023-03-30T05:36:06.317Z,12.25
2023-03-30T05:38:34.975Z,12.35
2023-03-30T05:41:05.133Z,12.35
2023-03-30T05:43:33.797Z,12.38
2023-03-30T05:46:05.560Z,12.40
2023-03-30T05:48:33.609Z,12.40
2023-03-30T05:51:02.634Z,12.44
2023-03-30T05:53:31.115Z,12.46
2023-03-30T05:55:59.302Z,12.55
2023-03-30T05:58:27.591Z,12.55
2023-03-30T06:00:59.400Z,12.65
2023-03-30T06:03:28.776Z,12.63
2023-03-30T06:05:56.941Z,12.68
2023-03-30T06:08:27.154Z,12.66
2023-03-30T06:10:56.206Z,12.70
2023-03-30T06:13:25.354Z,12.69
2023-03-30T06:15:53.445Z,12.66
2023-03-30T06:18:21.521Z,12.79
2023-03-30T06:20:51.839Z,12.90
2023-03-30T06:23:20.102Z,12.92
2023-03-30T06:25:53.070Z,12.98
2023-03-30T06:28:21.919Z,13.01
2023-03-30T06:30:50.585Z,13.13
2023-03-30T06:33:19.462Z,13.22
2023-03-30T06:35:48.879Z,13.24
2023-03-30T06:38:21.338Z,13.31
2023-03-30T06:40:51.392Z,13.43
2023-03-30T06:43:21.818Z,13.59
2023-03-30T06:45:54.091Z,13.67
2023-03-30T06:48:23.966Z,13.75
2023-03-30T06:50:52.624Z,13.74
2023-03-30T06:53:24.417Z,13.80
2023-03-30T06:55:56.975Z,13.80
2023-03-30T06:58:26.389Z,13.90
2023-03-30T07:00:54.905Z,14.16
2023-03-30T07:03:23.088Z,14.27
2023-03-30T07:05:52.664Z,14.37
2023-03-30T07:08:22.365Z,14.45
2023-03-30T07:10:51.596Z,14.49
2023-03-30T07:13:19.743Z,14.53
2023-03-30T07:15:48.411Z,14.63
2023-03-30T07:18:22.434Z,14.84
2023-03-30T07:20:51.293Z,14.92
2023-03-30T07:23:22.229Z,14.98
2023-03-30T07:25:50.289Z,14.90
2023-03-30T07:28:18.617Z,14.93
2023-03-30T07:30:47.221Z,14.99
2023-03-30T07:33:15.717Z,15.02
2023-03-30T07:35:47.328Z,15.00
2023-03-30T07:38:15.723Z,15.07
2023-03-30T07:40:45.325Z,15.37
2023-03-30T07:43:14.418Z,15.51
2023-03-30T07:45:42.589Z,15.48
2023-03-30T07:48:10.720Z,15.41
2023-03-30T07:50:38.888Z,15.54
2023-03-30T07:53:07.225Z,15.66
2023-03-30T07:55:35.283Z,15.49
2023-03-30T07:58:05.198Z,15.42
2023-03-30T08:00:33.205Z,15.28
2023-03-30T08:03:01.920Z,15.30
2023-03-30T08:05:29.979Z,15.27
2023-03-30T08:07:57.995Z,15.31
2023-03-30T08:10:25.989Z,15.42
2023-03-30T08:12:54.092Z,15.64
2023-03-30T08:15:23.525Z,15.71
2023-03-30T08:17:51.879Z,15.70
2023-03-30T08:20:20.196Z,15.82
2023-03-30T08:22:49.285Z,15.75
2023-03-30T08:25:18.914Z,15.52
2023-03-30T08:27:47.491Z,15.61
2023-03-30T08:30:18.025Z,15.65
2023-03-30T08:32:48.522Z,15.80
2023-03-30T08:35:17.807Z,16.10
2023-03-30T08:37:46.319Z,17.77
2023-03-30T08:40:17.918Z,18.33
2023-03-30T08:43:19.992Z,17.66
2023-03-30T08:45:48.998Z,17.11
2023-03-30T08:48:23.736Z,16.67
2023-03-30T08:50:57.544Z,15.98
2023-03-30T08:53:26.447Z,15.81
2023-03-30T08:56:02.527Z,16.10
2023-03-30T08:58:40.363Z,16.37
2023-03-30T09:01:20.299Z,16.78
2023-03-30T09:04:03.674Z,17.22
2023-03-30T09:06:45.007Z,17.43
2023-03-30T09:09:15.206Z,19.06
2023-03-30T09:11:43.875Z,19.45
2023-03-30T09:14:19.934Z,19.66
2023-03-30T09:16:53.913Z,19.71
2023-03-30T09:19:28.082Z,19.22
2023-03-30T09:21:58.093Z,19.64
2023-03-30T09:24:27.381Z,20.41
2023-03-30T09:27:00.919Z,20.29
2023-03-30T09:29:32.655Z,19.56
2023-03-30T09:32:06.967Z,19.16
2023-03-30T09:34:41.937Z,18.86
2023-03-30T09:37:13.702Z,18.70
2023-03-30T09:39:42.349Z,18.27
2023-03-30T09:42:20.246Z,17.52
2023-03-30T09:44:51.332Z,17.11
2023-03-30T09:47:26.576Z,16.98
2023-03-30T09:50:05.039Z,16.90
2023-03-30T09:52:37.512Z,16.90
2023-03-30T09:55:28.416Z,17.11
2023-03-30T09:58:13.210Z,17.06
2023-03-30T10:00:41.775Z,17.07
2023-03-30T10:03:21.015Z,17.08
2023-03-30T10:06:03.281Z,18.03
2023-03-30T10:08:32.601Z,18.25
2023-03-30T10:11:05.661Z,18.28
2023-03-30T10:13:36.861Z,18.45
2023-03-30T10:16:10.396Z,19.15
2023-03-30T10:18:41.889Z,18.95
2023-03-30T10:21:23.030Z,18.99
2023-03-30T10:24:01.496Z,18.78
2023-03-30T10:26:31.802Z,18.66
2023-03-30T10:29:06.228Z,18.48
2023-03-30T10:31:37.336Z,18.45
2023-03-30T10:34:08.427Z,18.25
2023-03-30T10:36:41.011Z,18.20
2023-03-30T10:39:15.362Z,18.19
2023-03-30T10:41:43.872Z,18.11
2023-03-30T10:44:25.628Z,17.92
2023-03-30T10:47:04.199Z,18.15
2023-03-30T10:49:44.474Z,18.11
2023-03-30T10:52:25.461Z,18.23
2023-03-30T10:54:58.637Z,18.33
2023-03-30T10:57:38.719Z,18.39
2023-03-30T11:00:26.098Z,18.20
2023-03-30T11:03:02.011Z,18.02
2023-03-30T11:05:34.090Z,17.98
2023-03-30T11:08:05.894Z,17.68
2023-03-30T11:10:38.463Z,17.54
2023-03-30T11:13:08.477Z,17.52
2023-03-30T11:15:42.837Z,17.75
2023-03-30T11:18:22.797Z,17.97
2023-03-30T11:20:57.998Z,18.14
2023-03-30T11:23:36.055Z,18.19
2023-03-30T11:26:08.758Z,18.31
2023-03-30T11:28:54.209Z,18.23
2023-03-30T11:31:40.884Z,18.21
2023-03-30T11:34:20.751Z,18.43
2023-03-30T11:36:57.255Z,18.47
2023-03-30T11:39:32.869Z,18.87
2023-03-30T11:42:09.540Z,18.70
2023-03-30T11:44:37.717Z,18.48
2023-03-30T11:47:28.983Z,18.26
2023-03-30T11:50:26.069Z,18.08
2023-03-30T11:53:08.562Z,17.95
2023-03-30T11:55:53.285Z,17.86
2023-03-30T11:58:31.160Z,18.28
2023-03-30T12:01:23.292Z,18.44
2023-03-30T12:03:54.619Z,18.63
2023-03-30T12:06:31.131Z,18.64
2023-03-30T12:09:14.185Z,18.75
2023-03-30T12:11:48.877Z,18.62
2023-03-30T12:14:41.897Z,18.27
2023-03-30T12:17:25.537Z,18.24
2023-03-30T12:19:59.925Z,18.09
2023-03-30T12:22:36.202Z,17.79
2023-03-30T12:25:16.451Z,17.45
2023-03-30T12:27:59.817Z,16.89
2023-03-30T12:30:31.591Z,16.71
2023-03-30T12:33:03.343Z,16.36
2023-03-30T12:35:53.807Z,16.34
2023-03-30T12:38:25.705Z,16.40
2023-03-30T12:41:14.852Z,16.28
2023-03-30T12:44:14.965Z,16.69
2023-03-30T12:46:58.455Z,16.72
2023-03-30T12:49:39.204Z,16.77
2023-03-30T12:52:14.365Z,16.79
2023-03-30T12:55:08.799Z,16.78
2023-03-30T12:57:53.185Z,16.82
2023-03-30T13:00:37.269Z,16.78
2023-03-30T13:03:21.596Z,16.86
2023-03-30T13:05:53.780Z,16.79
2023-03-30T13:08:28.157Z,16.87
2023-03-30T13:11:09.061Z,16.82
2023-03-30T13:13:56.077Z,16.64
2023-03-30T13:17:01.467Z,16.45
2023-03-30T13:19:44.059Z,16.63
2023-03-30T13:22:36.018Z,16.83
2023-03-30T13:25:28.483Z,17.14
2023-03-30T13:28:00.414Z,17.28
2023-03-30T13:30:30.689Z,17.17
2023-03-30T13:33:12.746Z,17.20
2023-03-30T13:35:54.261Z,17.17
2023-03-30T13:38:46.327Z,17.06
2023-03-30T13:41:28.534Z,17.28
2023-03-30T13:44:14.217Z,17.32
2023-03-30T13:46:51.415Z,17.24
2023-03-30T13:49:41.068Z,17.40
2023-03-30T13:52:15.779Z,17.51
2023-03-30T13:54:44.930Z,17.22
2023-03-30T13:57:15.860Z,16.93
2023-03-30T13:59:47.491Z,16.82
2023-03-30T14:02:17.604Z,16.80
2023-03-30T14:04:45.827Z,17.15
2023-03-30T14:07:18.419Z,17.50
2023-03-30T14:10:04.718Z,17.64
2023-03-30T14:12:39.704Z,17.54
2023-03-30T14:15:18.682Z,17.56
2023-03-30T14:17:52.893Z,17.46
2023-03-30T14:20:37.240Z,17.37
2023-03-30T14:23:07.266Z,17.19
2023-03-30T14:25:39.784Z,17.02
2023-03-30T14:28:15.350Z,16.95
2023-03-30T14:30:51.582Z,17.03
2023-03-30T14:33:19.727Z,17.15
2023-03-30T14:35:50.849Z,17.15
2023-03-30T14:38:24.055Z,17.31
2023-03-30T14:40:53.433Z,17.50
2023-03-30T14:43:24.814Z,17.63
2023-03-30T14:45:53.881Z,18.00
2023-03-30T14:48:26.822Z,18.07
2023-03-30T14:50:55.241Z,18.33
2023-03-30T14:53:28.387Z,18.43
2023-03-30T14:55:58.420Z,18.33
2023-03-30T14:58:28.701Z,18.03
2023-03-30T15:00:59.043Z,18.08
2023-03-30T15:03:34.058Z,18.08
2023-03-30T15:06:03.592Z,17.87
2023-03-30T15:08:39.594Z,17.78
2023-03-30T15:11:10.723Z,17.62
2023-03-30T15:13:43.718Z,17.33
2023-03-30T15:16:16.980Z,17.11
2023-03-30T15:18:45.571Z,17.19
2023-03-30T15:21:15.581Z,17.26
2023-03-30T15:23:47.673Z,17.39
2023-03-30T15:26:16.041Z,17.52
2023-03-30T15:28:48.366Z,17.55
2023-03-30T15:31:17.334Z,17.52
2023-03-30T15:33:46.828Z,17.63
2023-03-30T15:36:20.176Z,17.50
2023-03-30T15:38:52.273Z,17.51
2023-03-30T15:41:23.813Z,17.27
2023-03-30T15:44:00.505Z,16.68
2023-03-30T15:46:29.141Z,16.14
2023-03-30T15:48:59.510Z,15.92
2023-03-30T15:51:33.256Z,15.75
2023-03-30T15:54:04.344Z,15.88
2023-03-30T15:56:37.935Z,15.95
2023-03-30T15:59:06.940Z,15.75
2023-03-30T16:01:44.206Z,15.67
2023-03-30T16:04:15.265Z,15.51
2023-03-30T16:06:44.583Z,15.49
2023-03-30T16:09:16.085Z,15.49
2023-03-30T16:11:46.995Z,15.44
2023-03-30T16:14:20.292Z,15.44
2023-03-30T16:16:51.441Z,15.41
2023-03-30T16:19:21.122Z,15.35
2023-03-30T16:21:49.101Z,15.37
2023-03-30T16:24:18.869Z,15.42
2023-03-30T16:26:47.595Z,15.33
2023-03-30T16:29:21.607Z,15.34
2023-03-30T16:31:49.737Z,15.24
2023-03-30T16:34:18.148Z,15.26
2023-03-30T16:36:48.062Z,15.38
2023-03-30T16:39:20.445Z,15.34
2023-03-30T16:41:49.545Z,15.39
2023-03-30T16:44:18.086Z,15.44
2023-03-30T16:46:46.793Z,15.48
2023-03-30T16:49:16.639Z,15.51
2023-03-30T16:51:44.874Z,15.53
2023-03-30T16:54:27.273Z,15.50
2023-03-30T16:57:00.618Z,15.56
2023-03-30T16:59:33.098Z,15.61
2023-03-30T17:02:02.498Z,15.58
2023-03-30T17:04:30.534Z,15.59
2023-03-30T17:06:58.926Z,15.50
2023-03-30T17:09:27.419Z,15.46
2023-03-30T17:11:55.452Z,15.53
2023-03-30T17:14:25.012Z,15.55
2023-03-30T17:16:53.043Z,15.64
2023-03-30T17:19:21.052Z,15.49
2023-03-30T17:21:49.139Z,15.57
2023-03-30T17:24:17.250Z,15.57
2023-03-30T17:26:45.509Z,15.53
2023-03-30T17:29:13.610Z,15.42
2023-03-30T17:31:45.925Z,15.35
2023-03-30T17:34:15.799Z,15.36
2023-03-30T17:36:44.209Z,15.31
2023-03-30T17:39:15.394Z,15.28
2023-03-30T17:41:43.878Z,15.27
2023-03-30T17:44:11.795Z,15.26
2023-03-30T17:46:42.791Z,15.29
2023-03-30T17:49:17.895Z,15.25
2023-03-30T17:51:46.272Z,15.23
2023-03-30T17:54:17.451Z,15.16
2023-03-30T17:56:45.720Z,15.14
2023-03-30T17:59:14.152Z,15.11
2023-03-30T18:01:42.397Z,15.06
2023-03-30T18:04:10.689Z,15.00
2023-03-30T18:06:40.710Z,14.95
2023-03-30T18:09:16.135Z,14.97
2023-03-30T18:11:44.090Z,15.02
2023-03-30T18:14:12.685Z,15.04
2023-03-30T18:16:43.801Z,15.05
2023-03-30T18:19:13.620Z,15.05
2023-03-30T18:21:43.581Z,15.12
2023-03-30T18:24:11.742Z,15.19
2023-03-30T18:26:41.529Z,15.23
2023-03-30T18:29:20.316Z,15.22
2023-03-30T18:31:48.702Z,15.12
2023-03-30T18:34:17.183Z,15.04
2023-03-30T18:36:46.901Z,14.99
2023-03-30T18:39:19.728Z,15.02
2023-03-30T18:41:50.340Z,14.79
2023-03-30T18:44:18.569Z,14.67
2023-03-30T18:46:51.335Z,14.57
2023-03-30T18:49:24.386Z,14.54
2023-03-30T18:51:53.931Z,14.53
2023-03-30T18:54:21.958Z,14.56
2023-03-30T18:56:50.125Z,14.57
2023-03-30T18:59:23.029Z,14.63
2023-03-30T19:01:51.146Z,14.59
2023-03-30T19:04:19.498Z,14.62
2023-03-30T19:06:48.306Z,14.66
2023-03-30T19:09:17.877Z,14.63
2023-03-30T19:11:45.949Z,14.67
2023-03-30T19:14:16.766Z,14.61
2023-03-30T19:16:45.006Z,14.48
2023-03-30T19:19:15.509Z,14.47
2023-03-30T19:21:46.216Z,14.46
2023-03-30T19:24:14.545Z,14.45
2023-03-30T19:26:43.895Z,14.31
2023-03-30T19:29:13.066Z,14.26
2023-03-30T19:31:41.037Z,14.23
2023-03-30T19:34:09.369Z,14.29
2023-03-30T19:36:37.390Z,14.20
2023-03-30T19:39:05.517Z,14.27
2023-03-30T19:41:36.634Z,14.31
2023-03-30T19:44:06.464Z,14.30
2023-03-30T19:46:39.803Z,14.25
2023-03-30T19:49:08.887Z,14.37
2023-03-30T19:51:37.076Z,14.28
2023-03-30T19:54:05.191Z,14.29
2023-03-30T19:56:37.505Z,14.16
2023-03-30T19:59:09.111Z,14.16
2023-03-30T20:01:37.751Z,14.15
2023-03-30T20:04:06.617Z,14.00
2023-03-30T20:06:35.975Z,13.97
2023-03-30T20:09:05.529Z,14.00
2023-03-30T20:11:37.112Z,14.05
2023-03-30T20:14:07.599Z,14.03
2023-03-30T20:16:35.770Z,13.99
2023-03-30T20:19:12.996Z,14.03
2023-03-30T20:21:47.171Z,13.83
2023-03-30T20:24:15.299Z,13.85
2023-03-30T20:26:43.275Z,13.86
2023-03-30T20:29:15.555Z,13.78
2023-03-30T20:31:44.589Z,13.74
2023-03-30T20:34:14.563Z,13.62
2023-03-30T20:36:43.118Z,13.71
2023-03-30T20:39:14.147Z,13.66
2023-03-30T20:41:42.655Z,13.77
2023-03-30T20:44:12.559Z,13.83
2023-03-30T20:46:45.906Z,13.76
2023-03-30T20:49:14.421Z,13.75
2023-03-30T20:51:45.152Z,13.76
2023-03-30T20:54:14.774Z,13.80
2023-03-30T20:56:43.182Z,13.71
2023-03-30T20:59:11.861Z,13.62
2023-03-30T21:01:41.576Z,13.69
2023-03-30T21:04:09.519Z,13.77
2023-03-30T21:06:37.686Z,13.75
2023-03-30T21:09:08.771Z,13.86
2023-03-30T21:11:39.886Z,13.79
2023-03-30T21:14:09.401Z,13.72
2023-03-30T21:16:38.044Z,13.70
2023-03-30T21:19:07.478Z,13.60
2023-03-30T21:21:37.458Z,13.59
2023-03-30T21:24:06.361Z,13.62
2023-03-30T21:26:34.446Z,13.62
2023-03-30T21:29:02.741Z,13.53
2023-03-30T21:31:30.855Z,13.61
2023-03-30T21:33:58.943Z,13.68
2023-03-30T21:36:28.674Z,13.64
2023-03-30T21:38:58.919Z,13.52
2023-03-30T21:41:28.901Z,13.57
2023-03-30T21:43:57.359Z,13.64
2023-03-30T21:46:26.984Z,13.64
2023-03-30T21:48:55.924Z,13.69
2023-03-30T21:51:26.386Z,13.67
2023-03-30T21:53:58.160Z,13.72
2023-03-30T21:56:28.990Z,13.74
2023-03-30T21:58:57.500Z,13.71
2023-03-30T22:01:26.344Z,13.67
2023-03-30T22:03:55.003Z,13.58
2023-03-30T22:06:23.791Z,13.59
2023-03-30T22:08:51.924Z,13.57
2023-03-30T22:11:23.391Z,13.50
2023-03-30T22:13:52.372Z,13.41
2023-03-30T22:16:22.484Z,13.33
2023-03-30T22:18:51.733Z,13.27
2023-03-30T22:21:24.104Z,13.27
2023-03-30T22:23:54.569Z,13.30
2023-03-30T22:26:24.347Z,13.43
2023-03-30T22:28:52.460Z,13.57
2023-03-30T22:31:20.510Z,13.67
2023-03-30T22:33:48.548Z,13.71
2023-03-30T22:36:19.488Z,13.73
2023-03-30T22:38:48.299Z,13.59
2023-03-30T22:41:16.726Z,13.56
2023-03-30T22:43:46.958Z,13.59
2023-03-30T22:46:15.089Z,13.48
2023-03-30T22:48:45.216Z,13.58
2023-03-30T22:51:15.302Z,13.65
2023-03-30T22:53:43.396Z,13.70
2023-03-30T22:56:11.821Z,13.74
2023-03-30T22:58:39.985Z,13.82
2023-03-30T23:01:13.600Z,13.89
2023-03-30T23:03:41.707Z,13.77
2023-03-30T23:06:09.949Z,13.82
2023-03-30T23:08:39.309Z,13.79
2023-03-30T23:11:08.466Z,13.70
2023-03-30T23:13:38.418Z,13.63
2023-03-30T23:16:08.438Z,13.75
2023-03-30T23:18:38.889Z,13.76
2023-03-30T23:21:08.798Z,13.85
2023-03-30T23:23:37.851Z,13.91
2023-03-30T23:26:09.167Z,13.98
2023-03-30T23:28:39.870Z,13.86
2023-03-30T23:31:10.024Z,13.85
2023-03-30T23:33:42.818Z,13.78
2023-03-30T23:36:13.958Z,13.79
2023-03-30T23:38:42.697Z,13.74
2023-03-30T23:41:13.397Z,13.76
2023-03-30T23:43:41.728Z,13.64
2023-03-30T23:46:11.104Z,13.57
2023-03-30T23:48:42.108Z,13.61
2023-03-30T23:51:10.772Z,13.60
2023-03-30T23:53:40.440Z,13.57
2023-03-30T23:56:13.089Z,13.63
2023-03-30T23:58:41.838Z,13.44
